sensor_id;sensor_type;location;lat;lon;timestamp;P1;durP1;ratioP1;P2;durP2;ratioP2
2452;SDS011;63678;47.994;7.854;2023-01-29T00:01:57;19.67;;;9.68;;
2452;SDS011;63678;47.994;7.854;2023-01-29T00:04:30;17.97;;;9.50;;
2452;SDS011;63678;47.994;7.854;2023-01-29T00:07:03;17.33;;;9.65;;
2452;SDS011;63678;47.994;7.854;2023-01-29T00:09:35;17.38;;;10.18;;
2452;SDS011;63678;47.994;7.854;2023-01-29T00:12:07;20.20;;;11.13;;
2452;SDS011;63678;47.994;7.854;2023-01-29T00:14:40;17.35;;;10.07;;
2452;SDS011;63678;47.994;7.854;2023-01-29T00:17:12;17.50;;;9.67;;
2452;SDS011;63678;47.994;7.854;2023-01-29T00:19:45;18.48;;;10.10;;
2452;SDS011;63678;47.994;7.854;2023-01-29T00:22:17;18.50;;;10.52;;
2452;SDS011;63678;47.994;7.854;2023-01-29T00:24:50;19.25;;;10.40;;
2452;SDS011;63678;47.994;7.854;2023-01-29T00:27:22;15.93;;;9.93;;
2452;SDS011;63678;47.994;7.854;2023-01-29T00:29:55;21.67;;;11.70;;
2452;SDS011;63678;47.994;7.854;2023-01-29T00:32:47;21.63;;;11.55;;
2452;SDS011;63678;47.994;7.854;2023-01-29T00:35:20;21.30;;;11.15;;
2452;SDS011;63678;47.994;7.854;2023-01-29T00:37:53;20.33;;;11.30;;
2452;SDS011;63678;47.994;7.854;2023-01-29T00:40:27;20.88;;;10.80;;
2452;SDS011;63678;47.994;7.854;2023-01-29T00:43:20;20.27;;;10.70;;
2452;SDS011;63678;47.994;7.854;2023-01-29T00:46:10;17.80;;;10.38;;
2452;SDS011;63678;47.994;7.854;2023-01-29T00:48:43;19.92;;;10.25;;
2452;SDS011;63678;47.994;7.854;2023-01-29T00:51:16;20.10;;;10.43;;
2452;SDS011;63678;47.994;7.854;2023-01-29T00:53:48;18.77;;;9.95;;
2452;SDS011;63678;47.994;7.854;2023-01-29T00:56:20;18.53;;;10.47;;
2452;SDS011;63678;47.994;7.854;2023-01-29T00:58:53;21.17;;;11.18;;
2452;SDS011;63678;47.994;7.854;2023-01-29T01:01:25;17.58;;;9.88;;
2452;SDS011;63678;47.994;7.854;2023-01-29T01:04:16;16.98;;;9.73;;
2452;SDS011;63678;47.994;7.854;2023-01-29T01:06:50;18.88;;;9.98;;
2452;SDS011;63678;47.994;7.854;2023-01-29T01:09:22;17.70;;;9.73;;
2452;SDS011;63678;47.994;7.854;2023-01-29T01:12:13;16.20;;;9.38;;
2452;SDS011;63678;47.994;7.854;2023-01-29T01:14:45;17.67;;;9.68;;
2452;SDS011;63678;47.994;7.854;2023-01-29T01:17:18;17.88;;;9.55;;
2452;SDS011;63678;47.994;7.854;2023-01-29T01:19:52;17.98;;;9.95;;
2452;SDS011;63678;47.994;7.854;2023-01-29T01:22:25;16.10;;;9.00;;
2452;SDS011;63678;47.994;7.854;2023-01-29T01:24:58;18.95;;;10.32;;
2452;SDS011;63678;47.994;7.854;2023-01-29T01:27:30;19.23;;;10.20;;
2452;SDS011;63678;47.994;7.854;2023-01-29T01:30:03;16.13;;;9.35;;
2452;SDS011;63678;47.994;7.854;2023-01-29T01:32:35;18.60;;;9.95;;
2452;SDS011;63678;47.994;7.854;2023-01-29T01:35:09;17.60;;;9.60;;
2452;SDS011;63678;47.994;7.854;2023-01-29T01:37:42;16.20;;;9.35;;
2452;SDS011;63678;47.994;7.854;2023-01-29T01:40:16;19.75;;;10.27;;
2452;SDS011;63678;47.994;7.854;2023-01-29T01:42:52;19.45;;;10.73;;
2452;SDS011;63678;47.994;7.854;2023-01-29T01:45:29;19.55;;;10.40;;
2452;SDS011;63678;47.994;7.854;2023-01-29T01:48:16;20.83;;;10.30;;
2452;SDS011;63678;47.994;7.854;2023-01-29T01:50:59;18.67;;;10.52;;
2452;SDS011;63678;47.994;7.854;2023-01-29T01:53:38;17.25;;;9.82;;
2452;SDS011;63678;47.994;7.854;2023-01-29T01:56:22;16.65;;;9.85;;
2452;SDS011;63678;47.994;7.854;2023-01-29T01:59:09;18.48;;;10.35;;
2452;SDS011;63678;47.994;7.854;2023-01-29T02:01:50;22.47;;;11.27;;
2452;SDS011;63678;47.994;7.854;2023-01-29T02:04:24;18.77;;;10.75;;
2452;SDS011;63678;47.994;7.854;2023-01-29T02:07:16;21.25;;;11.00;;
2452;SDS011;63678;47.994;7.854;2023-01-29T02:10:09;21.30;;;10.95;;
2452;SDS011;63678;47.994;7.854;2023-01-29T02:12:45;18.92;;;10.65;;
2452;SDS011;63678;47.994;7.854;2023-01-29T02:15:19;19.50;;;10.17;;
2452;SDS011;63678;47.994;7.854;2023-01-29T02:17:51;20.42;;;10.38;;
2452;SDS011;63678;47.994;7.854;2023-01-29T02:20:25;19.48;;;11.00;;
2452;SDS011;63678;47.994;7.854;2023-01-29T02:23:05;17.95;;;10.07;;
2452;SDS011;63678;47.994;7.854;2023-01-29T02:29:54;21.00;;;11.03;;
2452;SDS011;63678;47.994;7.854;2023-01-29T02:32:48;18.10;;;10.18;;
2452;SDS011;63678;47.994;7.854;2023-01-29T02:35:43;17.10;;;10.07;;
2452;SDS011;63678;47.994;7.854;2023-01-29T02:38:29;20.27;;;10.30;;
2452;SDS011;63678;47.994;7.854;2023-01-29T02:44:10;20.57;;;10.37;;
2452;SDS011;63678;47.994;7.854;2023-01-29T02:46:59;21.17;;;10.65;;
2452;SDS011;63678;47.994;7.854;2023-01-29T02:55:43;21.00;;;11.30;;
2452;SDS011;63678;47.994;7.854;2023-01-29T02:58:34;21.47;;;11.53;;
2452;SDS011;63678;47.994;7.854;2023-01-29T03:01:17;21.50;;;11.88;;
2452;SDS011;63678;47.994;7.854;2023-01-29T03:04:07;19.95;;;10.50;;
2452;SDS011;63678;47.994;7.854;2023-01-29T03:06:46;20.52;;;11.60;;
2452;SDS011;63678;47.994;7.854;2023-01-29T03:09:28;24.33;;;12.38;;
2452;SDS011;63678;47.994;7.854;2023-01-29T03:12:09;25.07;;;12.13;;
2452;SDS011;63678;47.994;7.854;2023-01-29T03:15:00;23.83;;;11.60;;
2452;SDS011;63678;47.994;7.854;2023-01-29T03:17:49;20.00;;;10.38;;
2452;SDS011;63678;47.994;7.854;2023-01-29T03:20:39;23.92;;;12.50;;
2452;SDS011;63678;47.994;7.854;2023-01-29T03:23:24;23.08;;;13.45;;
2452;SDS011;63678;47.994;7.854;2023-01-29T03:26:22;20.80;;;11.10;;
2452;SDS011;63678;47.994;7.854;2023-01-29T03:29:14;23.88;;;12.45;;
2452;SDS011;63678;47.994;7.854;2023-01-29T03:32:06;23.10;;;12.07;;
2452;SDS011;63678;47.994;7.854;2023-01-29T03:34:48;26.00;;;13.00;;
2452;SDS011;63678;47.994;7.854;2023-01-29T03:37:26;27.20;;;12.48;;
2452;SDS011;63678;47.994;7.854;2023-01-29T03:40:11;25.10;;;11.63;;
2452;SDS011;63678;47.994;7.854;2023-01-29T03:45:57;25.60;;;12.73;;
2452;SDS011;63678;47.994;7.854;2023-01-29T03:48:42;21.48;;;11.75;;
2452;SDS011;63678;47.994;7.854;2023-01-29T03:51:37;22.40;;;12.98;;
2452;SDS011;63678;47.994;7.854;2023-01-29T04:00:33;22.58;;;11.77;;
2452;SDS011;63678;47.994;7.854;2023-01-29T04:03:32;24.50;;;12.13;;
2452;SDS011;63678;47.994;7.854;2023-01-29T04:06:17;23.15;;;12.68;;
2452;SDS011;63678;47.994;7.854;2023-01-29T04:11:48;22.33;;;12.52;;
2452;SDS011;63678;47.994;7.854;2023-01-29T04:14:28;23.85;;;12.45;;
2452;SDS011;63678;47.994;7.854;2023-01-29T04:17:05;23.58;;;12.82;;
2452;SDS011;63678;47.994;7.854;2023-01-29T04:20:10;24.58;;;12.00;;
2452;SDS011;63678;47.994;7.854;2023-01-29T04:22:45;22.10;;;11.67;;
2452;SDS011;63678;47.994;7.854;2023-01-29T04:25:21;23.40;;;12.02;;
2452;SDS011;63678;47.994;7.854;2023-01-29T04:39:27;19.73;;;11.38;;
2452;SDS011;63678;47.994;7.854;2023-01-29T04:42:47;23.88;;;11.93;;
2452;SDS011;63678;47.994;7.854;2023-01-29T04:48:25;23.92;;;11.85;;
2452;SDS011;63678;47.994;7.854;2023-01-29T04:51:13;24.93;;;12.53;;
2452;SDS011;63678;47.994;7.854;2023-01-29T04:53:58;20.05;;;12.05;;
2452;SDS011;63678;47.994;7.854;2023-01-29T04:59:25;21.50;;;11.65;;
2452;SDS011;63678;47.994;7.854;2023-01-29T05:02:04;25.98;;;12.10;;
2452;SDS011;63678;47.994;7.854;2023-01-29T05:05:00;25.17;;;12.73;;
2452;SDS011;63678;47.994;7.854;2023-01-29T05:07:37;23.60;;;11.38;;
2452;SDS011;63678;47.994;7.854;2023-01-29T05:10:11;22.02;;;11.85;;
2452;SDS011;63678;47.994;7.854;2023-01-29T05:12:48;23.63;;;11.70;;
2452;SDS011;63678;47.994;7.854;2023-01-29T05:15:37;23.83;;;12.77;;
2452;SDS011;63678;47.994;7.854;2023-01-29T05:18:25;24.80;;;12.93;;
2452;SDS011;63678;47.994;7.854;2023-01-29T05:20:57;22.60;;;12.98;;
2452;SDS011;63678;47.994;7.854;2023-01-29T05:23:35;23.15;;;11.52;;
2452;SDS011;63678;47.994;7.854;2023-01-29T05:26:07;23.13;;;11.90;;
2452;SDS011;63678;47.994;7.854;2023-01-29T05:28:40;23.02;;;12.10;;
2452;SDS011;63678;47.994;7.854;2023-01-29T05:31:12;22.27;;;11.63;;
2452;SDS011;63678;47.994;7.854;2023-01-29T05:33:45;24.20;;;12.35;;
2452;SDS011;63678;47.994;7.854;2023-01-29T05:36:17;20.92;;;11.32;;
2452;SDS011;63678;47.994;7.854;2023-01-29T05:38:50;22.27;;;11.85;;
2452;SDS011;63678;47.994;7.854;2023-01-29T05:41:22;23.73;;;12.38;;
2452;SDS011;63678;47.994;7.854;2023-01-29T05:43:54;22.67;;;11.50;;
2452;SDS011;63678;47.994;7.854;2023-01-29T05:46:27;25.10;;;11.20;;
2452;SDS011;63678;47.994;7.854;2023-01-29T05:48:59;22.55;;;12.32;;
2452;SDS011;63678;47.994;7.854;2023-01-29T05:51:31;25.20;;;12.32;;
2452;SDS011;63678;47.994;7.854;2023-01-29T05:54:04;21.65;;;10.18;;
2452;SDS011;63678;47.994;7.854;2023-01-29T05:56:37;25.57;;;12.50;;
2452;SDS011;63678;47.994;7.854;2023-01-29T05:59:10;23.95;;;12.13;;
2452;SDS011;63678;47.994;7.854;2023-01-29T06:01:42;23.75;;;12.30;;
2452;SDS011;63678;47.994;7.854;2023-01-29T06:04:14;23.20;;;11.60;;
2452;SDS011;63678;47.994;7.854;2023-01-29T06:06:47;25.90;;;12.68;;
2452;SDS011;63678;47.994;7.854;2023-01-29T06:09:19;23.67;;;11.60;;
2452;SDS011;63678;47.994;7.854;2023-01-29T06:11:52;25.25;;;12.20;;
2452;SDS011;63678;47.994;7.854;2023-01-29T06:14:24;21.38;;;11.57;;
2452;SDS011;63678;47.994;7.854;2023-01-29T06:16:56;20.75;;;11.32;;
2452;SDS011;63678;47.994;7.854;2023-01-29T06:19:28;25.67;;;11.75;;
2452;SDS011;63678;47.994;7.854;2023-01-29T06:22:01;25.50;;;11.70;;
2452;SDS011;63678;47.994;7.854;2023-01-29T06:24:34;21.65;;;11.65;;
2452;SDS011;63678;47.994;7.854;2023-01-29T06:27:06;20.90;;;10.88;;
2452;SDS011;63678;47.994;7.854;2023-01-29T06:29:39;23.92;;;12.05;;
2452;SDS011;63678;47.994;7.854;2023-01-29T06:32:11;26.08;;;12.77;;
2452;SDS011;63678;47.994;7.854;2023-01-29T06:34:44;25.47;;;12.63;;
2452;SDS011;63678;47.994;7.854;2023-01-29T06:37:19;22.92;;;12.02;;
2452;SDS011;63678;47.994;7.854;2023-01-29T06:39:52;29.67;;;13.40;;
2452;SDS011;63678;47.994;7.854;2023-01-29T06:42:24;24.73;;;12.73;;
2452;SDS011;63678;47.994;7.854;2023-01-29T06:44:58;28.23;;;13.13;;
2452;SDS011;63678;47.994;7.854;2023-01-29T06:47:30;25.30;;;12.67;;
2452;SDS011;63678;47.994;7.854;2023-01-29T06:50:03;26.42;;;12.40;;
2452;SDS011;63678;47.994;7.854;2023-01-29T06:52:36;24.25;;;12.85;;
2452;SDS011;63678;47.994;7.854;2023-01-29T06:55:08;25.77;;;13.23;;
2452;SDS011;63678;47.994;7.854;2023-01-29T06:57:40;29.80;;;12.98;;
2452;SDS011;63678;47.994;7.854;2023-01-29T07:00:14;23.97;;;12.73;;
2452;SDS011;63678;47.994;7.854;2023-01-29T07:02:48;27.33;;;13.60;;
2452;SDS011;63678;47.994;7.854;2023-01-29T07:05:20;24.33;;;12.65;;
2452;SDS011;63678;47.994;7.854;2023-01-29T07:07:56;27.75;;;12.65;;
2452;SDS011;63678;47.994;7.854;2023-01-29T07:10:29;23.60;;;12.90;;
2452;SDS011;63678;47.994;7.854;2023-01-29T07:13:01;27.67;;;13.70;;
2452;SDS011;63678;47.994;7.854;2023-01-29T07:15:34;28.77;;;13.55;;
2452;SDS011;63678;47.994;7.854;2023-01-29T07:18:07;25.83;;;12.82;;
2452;SDS011;63678;47.994;7.854;2023-01-29T07:20:43;26.40;;;13.10;;
2452;SDS011;63678;47.994;7.854;2023-01-29T07:23:16;25.30;;;12.60;;
2452;SDS011;63678;47.994;7.854;2023-01-29T07:25:49;27.83;;;13.57;;
2452;SDS011;63678;47.994;7.854;2023-01-29T07:28:21;26.48;;;12.70;;
2452;SDS011;63678;47.994;7.854;2023-01-29T07:30:57;27.73;;;13.65;;
2452;SDS011;63678;47.994;7.854;2023-01-29T07:33:50;23.67;;;13.48;;
2452;SDS011;63678;47.994;7.854;2023-01-29T07:36:23;24.67;;;12.63;;
2452;SDS011;63678;47.994;7.854;2023-01-29T07:38:55;24.13;;;12.50;;
2452;SDS011;63678;47.994;7.854;2023-01-29T07:41:27;20.20;;;11.10;;
2452;SDS011;63678;47.994;7.854;2023-01-29T07:44:03;21.65;;;12.25;;
2452;SDS011;63678;47.994;7.854;2023-01-29T07:46:35;20.25;;;11.48;;
2452;SDS011;63678;47.994;7.854;2023-01-29T07:49:08;20.38;;;11.18;;
2452;SDS011;63678;47.994;7.854;2023-01-29T07:51:41;24.40;;;12.20;;
2452;SDS011;63678;47.994;7.854;2023-01-29T07:54:13;24.27;;;11.43;;
2452;SDS011;63678;47.994;7.854;2023-01-29T07:56:46;22.05;;;11.73;;
2452;SDS011;63678;47.994;7.854;2023-01-29T07:59:18;21.02;;;11.48;;
2452;SDS011;63678;47.994;7.854;2023-01-29T08:01:50;22.15;;;12.40;;
2452;SDS011;63678;47.994;7.854;2023-01-29T08:04:26;20.17;;;10.73;;
2452;SDS011;63678;47.994;7.854;2023-01-29T08:06:58;21.70;;;11.23;;
2452;SDS011;63678;47.994;7.854;2023-01-29T08:09:31;22.95;;;11.85;;
2452;SDS011;63678;47.994;7.854;2023-01-29T08:12:03;23.73;;;11.48;;
2452;SDS011;63678;47.994;7.854;2023-01-29T08:14:35;34.17;;;15.63;;
2452;SDS011;63678;47.994;7.854;2023-01-29T08:17:08;22.70;;;11.77;;
2452;SDS011;63678;47.994;7.854;2023-01-29T08:19:40;22.15;;;11.35;;
2452;SDS011;63678;47.994;7.854;2023-01-29T08:22:12;20.48;;;11.32;;
2452;SDS011;63678;47.994;7.854;2023-01-29T08:24:47;19.83;;;11.48;;
2452;SDS011;63678;47.994;7.854;2023-01-29T08:27:30;20.33;;;11.68;;
2452;SDS011;63678;47.994;7.854;2023-01-29T08:30:02;20.57;;;10.80;;
2452;SDS011;63678;47.994;7.854;2023-01-29T08:32:36;20.73;;;10.77;;
2452;SDS011;63678;47.994;7.854;2023-01-29T08:35:08;21.83;;;11.35;;
2452;SDS011;63678;47.994;7.854;2023-01-29T08:37:40;24.45;;;10.95;;
2452;SDS011;63678;47.994;7.854;2023-01-29T08:40:13;22.55;;;11.73;;
2452;SDS011;63678;47.994;7.854;2023-01-29T08:42:46;23.93;;;12.10;;
2452;SDS011;63678;47.994;7.854;2023-01-29T08:45:18;22.95;;;11.85;;
2452;SDS011;63678;47.994;7.854;2023-01-29T08:47:52;28.42;;;11.90;;
2452;SDS011;63678;47.994;7.854;2023-01-29T08:50:24;23.13;;;11.65;;
2452;SDS011;63678;47.994;7.854;2023-01-29T08:52:57;21.55;;;11.50;;
2452;SDS011;63678;47.994;7.854;2023-01-29T08:55:35;23.87;;;12.23;;
2452;SDS011;63678;47.994;7.854;2023-01-29T08:58:09;23.17;;;11.55;;
2452;SDS011;63678;47.994;7.854;2023-01-29T09:00:42;22.50;;;11.30;;
2452;SDS011;63678;47.994;7.854;2023-01-29T09:03:14;30.00;;;12.27;;
2452;SDS011;63678;47.994;7.854;2023-01-29T09:05:49;21.23;;;12.70;;
2452;SDS011;63678;47.994;7.854;2023-01-29T09:08:22;25.50;;;12.90;;
2452;SDS011;63678;47.994;7.854;2023-01-29T09:10:57;25.02;;;12.27;;
2452;SDS011;63678;47.994;7.854;2023-01-29T09:13:30;24.27;;;12.95;;
2452;SDS011;63678;47.994;7.854;2023-01-29T09:16:03;23.42;;;12.32;;
2452;SDS011;63678;47.994;7.854;2023-01-29T09:18:35;30.00;;;12.75;;
2452;SDS011;63678;47.994;7.854;2023-01-29T09:21:08;24.93;;;12.43;;
2452;SDS011;63678;47.994;7.854;2023-01-29T09:23:41;22.80;;;11.85;;
2452;SDS011;63678;47.994;7.854;2023-01-29T09:29:47;28.83;;;12.48;;
2452;SDS011;63678;47.994;7.854;2023-01-29T09:32:19;28.38;;;11.38;;
2452;SDS011;63678;47.994;7.854;2023-01-29T09:35:11;27.90;;;12.00;;
2452;SDS011;63678;47.994;7.854;2023-01-29T09:37:47;22.83;;;11.50;;
2452;SDS011;63678;47.994;7.854;2023-01-29T09:40:30;27.75;;;12.00;;
2452;SDS011;63678;47.994;7.854;2023-01-29T09:45:58;24.17;;;11.65;;
2452;SDS011;63678;47.994;7.854;2023-01-29T09:49:00;32.07;;;11.63;;
2452;SDS011;63678;47.994;7.854;2023-01-29T09:51:47;25.05;;;10.95;;
2452;SDS011;63678;47.994;7.854;2023-01-29T09:54:26;23.52;;;11.25;;
2452;SDS011;63678;47.994;7.854;2023-01-29T09:57:06;22.65;;;11.25;;
2452;SDS011;63678;47.994;7.854;2023-01-29T09:59:48;19.20;;;11.35;;
2452;SDS011;63678;47.994;7.854;2023-01-29T10:02:40;24.00;;;11.47;;
2452;SDS011;63678;47.994;7.854;2023-01-29T10:05:28;22.20;;;10.38;;
2452;SDS011;63678;47.994;7.854;2023-01-29T10:08:49;34.15;;;11.85;;
2452;SDS011;63678;47.994;7.854;2023-01-29T10:23:29;20.23;;;9.82;;
2452;SDS011;63678;47.994;7.854;2023-01-29T10:26:08;24.92;;;9.75;;
2452;SDS011;63678;47.994;7.854;2023-01-29T10:28:44;22.67;;;10.45;;
2452;SDS011;63678;47.994;7.854;2023-01-29T10:34:06;18.42;;;9.88;;
2452;SDS011;63678;47.994;7.854;2023-01-29T10:36:47;17.40;;;9.48;;
2452;SDS011;63678;47.994;7.854;2023-01-29T10:39:24;20.10;;;10.25;;
2452;SDS011;63678;47.994;7.854;2023-01-29T10:42:17;19.65;;;10.30;;
2452;SDS011;63678;47.994;7.854;2023-01-29T10:45:05;20.40;;;9.50;;
2452;SDS011;63678;47.994;7.854;2023-01-29T10:57:35;18.63;;;8.55;;
2452;SDS011;63678;47.994;7.854;2023-01-29T11:00:37;16.90;;;7.60;;
2452;SDS011;63678;47.994;7.854;2023-01-29T11:03:15;8.75;;;4.60;;
2452;SDS011;63678;47.994;7.854;2023-01-29T11:12:16;9.90;;;6.07;;
2452;SDS011;63678;47.994;7.854;2023-01-29T11:20:49;11.25;;;6.10;;
2452;SDS011;63678;47.994;7.854;2023-01-29T11:23:33;14.05;;;6.30;;
2452;SDS011;63678;47.994;7.854;2023-01-29T11:26:05;17.05;;;7.00;;
2452;SDS011;63678;47.994;7.854;2023-01-29T11:28:42;24.40;;;6.83;;
2452;SDS011;63678;47.994;7.854;2023-01-29T11:31:20;23.52;;;7.40;;
2452;SDS011;63678;47.994;7.854;2023-01-29T11:34:02;13.82;;;6.68;;
2452;SDS011;63678;47.994;7.854;2023-01-29T11:37:01;15.05;;;6.88;;
2452;SDS011;63678;47.994;7.854;2023-01-29T11:39:36;16.08;;;7.03;;
2452;SDS011;63678;47.994;7.854;2023-01-29T11:42:18;12.60;;;5.90;;
2452;SDS011;63678;47.994;7.854;2023-01-29T11:44:52;10.40;;;5.90;;
2452;SDS011;63678;47.994;7.854;2023-01-29T11:47:49;13.90;;;6.07;;
2452;SDS011;63678;47.994;7.854;2023-01-29T11:50:25;17.13;;;6.40;;
2452;SDS011;63678;47.994;7.854;2023-01-29T11:53:01;12.70;;;6.00;;
2452;SDS011;63678;47.994;7.854;2023-01-29T11:55:36;16.33;;;6.40;;
2452;SDS011;63678;47.994;7.854;2023-01-29T11:58:25;12.50;;;5.78;;
2452;SDS011;63678;47.994;7.854;2023-01-29T12:01:00;18.95;;;6.82;;
2452;SDS011;63678;47.994;7.854;2023-01-29T12:03:35;10.90;;;6.05;;
2452;SDS011;63678;47.994;7.854;2023-01-29T12:06:19;10.30;;;5.55;;
2452;SDS011;63678;47.994;7.854;2023-01-29T12:08:56;11.77;;;5.63;;
2452;SDS011;63678;47.994;7.854;2023-01-29T12:11:32;19.42;;;7.10;;
2452;SDS011;63678;47.994;7.854;2023-01-29T12:14:21;13.60;;;6.05;;
2452;SDS011;63678;47.994;7.854;2023-01-29T12:22:25;11.57;;;6.07;;
2452;SDS011;63678;47.994;7.854;2023-01-29T12:25:27;15.23;;;6.43;;
2452;SDS011;63678;47.994;7.854;2023-01-29T12:28:21;10.40;;;5.82;;
2452;SDS011;63678;47.994;7.854;2023-01-29T12:31:14;13.13;;;6.55;;
2452;SDS011;63678;47.994;7.854;2023-01-29T12:41:22;12.05;;;6.65;;
2452;SDS011;63678;47.994;7.854;2023-01-29T12:47:23;12.90;;;5.88;;
2452;SDS011;63678;47.994;7.854;2023-01-29T12:50:20;19.40;;;6.13;;
2452;SDS011;63678;47.994;7.854;2023-01-29T12:55:58;17.50;;;5.85;;
2452;SDS011;63678;47.994;7.854;2023-01-29T12:58:43;12.73;;;6.50;;
2452;SDS011;63678;47.994;7.854;2023-01-29T13:01:27;13.40;;;6.18;;
2452;SDS011;63678;47.994;7.854;2023-01-29T13:04:15;11.52;;;6.13;;
2452;SDS011;63678;47.994;7.854;2023-01-29T13:07:10;10.87;;;5.63;;
2452;SDS011;63678;47.994;7.854;2023-01-29T13:09:55;11.80;;;6.30;;
2452;SDS011;63678;47.994;7.854;2023-01-29T13:12:37;13.45;;;6.40;;
2452;SDS011;63678;47.994;7.854;2023-01-29T13:15:21;12.95;;;7.00;;
2452;SDS011;63678;47.994;7.854;2023-01-29T13:18:09;15.15;;;6.53;;
2452;SDS011;63678;47.994;7.854;2023-01-29T13:21:16;11.20;;;6.37;;
2452;SDS011;63678;47.994;7.854;2023-01-29T13:23:55;12.68;;;7.05;;
2452;SDS011;63678;47.994;7.854;2023-01-29T13:26:33;11.07;;;6.38;;
2452;SDS011;63678;47.994;7.854;2023-01-29T13:29:05;12.35;;;6.88;;
2452;SDS011;63678;47.994;7.854;2023-01-29T13:31:38;15.73;;;7.75;;
2452;SDS011;63678;47.994;7.854;2023-01-29T13:34:15;14.90;;;7.10;;
2452;SDS011;63678;47.994;7.854;2023-01-29T13:37:00;16.25;;;6.97;;
2452;SDS011;63678;47.994;7.854;2023-01-29T13:39:45;16.58;;;6.93;;
2452;SDS011;63678;47.994;7.854;2023-01-29T13:48:07;13.37;;;6.70;;
2452;SDS011;63678;47.994;7.854;2023-01-29T13:50:50;12.18;;;6.53;;
2452;SDS011;63678;47.994;7.854;2023-01-29T13:53:28;11.10;;;5.88;;
2452;SDS011;63678;47.994;7.854;2023-01-29T13:59:23;12.10;;;6.70;;
2452;SDS011;63678;47.994;7.854;2023-01-29T14:02:28;14.13;;;7.37;;
2452;SDS011;63678;47.994;7.854;2023-01-29T14:08:01;19.65;;;7.30;;
2452;SDS011;63678;47.994;7.854;2023-01-29T14:10:40;13.90;;;7.15;;
2452;SDS011;63678;47.994;7.854;2023-01-29T14:18:33;13.05;;;7.13;;
2452;SDS011;63678;47.994;7.854;2023-01-29T14:24:00;14.32;;;7.80;;
2452;SDS011;63678;47.994;7.854;2023-01-29T14:26:47;11.35;;;6.47;;
2452;SDS011;63678;47.994;7.854;2023-01-29T14:29:26;12.97;;;7.27;;
2452;SDS011;63678;47.994;7.854;2023-01-29T14:34:45;13.52;;;7.53;;
2452;SDS011;63678;47.994;7.854;2023-01-29T14:37:21;15.38;;;7.45;;
2452;SDS011;63678;47.994;7.854;2023-01-29T14:40:22;12.70;;;6.93;;
2452;SDS011;63678;47.994;7.854;2023-01-29T14:42:58;12.00;;;6.80;;
2452;SDS011;63678;47.994;7.854;2023-01-29T14:45:38;17.13;;;8.30;;
2452;SDS011;63678;47.994;7.854;2023-01-29T14:48:19;13.82;;;7.38;;
2452;SDS011;63678;47.994;7.854;2023-01-29T14:51:10;14.50;;;7.10;;
2452;SDS011;63678;47.994;7.854;2023-01-29T14:56:39;20.73;;;8.33;;
2452;SDS011;63678;47.994;7.854;2023-01-29T14:59:21;12.27;;;7.30;;
2452;SDS011;63678;47.994;7.854;2023-01-29T15:04:52;13.60;;;7.43;;
2452;SDS011;63678;47.994;7.854;2023-01-29T15:07:31;16.27;;;8.30;;
2452;SDS011;63678;47.994;7.854;2023-01-29T15:10:20;16.83;;;8.90;;
2452;SDS011;63678;47.994;7.854;2023-01-29T15:13:16;18.17;;;8.65;;
2452;SDS011;63678;47.994;7.854;2023-01-29T15:16:01;16.13;;;8.43;;
2452;SDS011;63678;47.994;7.854;2023-01-29T15:18:40;18.55;;;8.40;;
2452;SDS011;63678;47.994;7.854;2023-01-29T15:21:15;18.15;;;8.07;;
2452;SDS011;63678;47.994;7.854;2023-01-29T15:23:52;21.23;;;10.23;;
2452;SDS011;63678;47.994;7.854;2023-01-29T15:26:36;15.63;;;8.38;;
2452;SDS011;63678;47.994;7.854;2023-01-29T15:29:20;16.52;;;8.23;;
2452;SDS011;63678;47.994;7.854;2023-01-29T15:31:55;15.85;;;8.35;;
2452;SDS011;63678;47.994;7.854;2023-01-29T15:34:29;14.32;;;8.77;;
2452;SDS011;63678;47.994;7.854;2023-01-29T15:37:01;13.90;;;7.63;;
2452;SDS011;63678;47.994;7.854;2023-01-29T15:39:40;15.90;;;8.15;;
2452;SDS011;63678;47.994;7.854;2023-01-29T15:42:14;24.02;;;8.35;;
2452;SDS011;63678;47.994;7.854;2023-01-29T15:44:52;18.23;;;7.93;;
2452;SDS011;63678;47.994;7.854;2023-01-29T15:47:29;17.40;;;8.45;;
2452;SDS011;63678;47.994;7.854;2023-01-29T15:50:02;16.80;;;8.43;;
2452;SDS011;63678;47.994;7.854;2023-01-29T15:52:35;24.27;;;8.43;;
2452;SDS011;63678;47.994;7.854;2023-01-29T15:55:18;16.67;;;9.13;;
2452;SDS011;63678;47.994;7.854;2023-01-29T15:57:53;15.43;;;8.25;;
2452;SDS011;63678;47.994;7.854;2023-01-29T16:00:27;17.85;;;9.25;;
2452;SDS011;63678;47.994;7.854;2023-01-29T16:03:05;14.93;;;7.80;;
2452;SDS011;63678;47.994;7.854;2023-01-29T16:05:46;16.15;;;8.27;;
2452;SDS011;63678;47.994;7.854;2023-01-29T16:08:19;18.13;;;9.35;;
2452;SDS011;63678;47.994;7.854;2023-01-29T16:11:02;16.40;;;8.57;;
2452;SDS011;63678;47.994;7.854;2023-01-29T16:13:38;15.48;;;8.73;;
2452;SDS011;63678;47.994;7.854;2023-01-29T16:18:47;16.98;;;8.98;;
2452;SDS011;63678;47.994;7.854;2023-01-29T16:21:32;14.73;;;8.32;;
2452;SDS011;63678;47.994;7.854;2023-01-29T16:24:11;20.10;;;8.50;;
2452;SDS011;63678;47.994;7.854;2023-01-29T16:26:51;16.00;;;8.85;;
2452;SDS011;63678;47.994;7.854;2023-01-29T16:29:33;16.53;;;8.33;;
2452;SDS011;63678;47.994;7.854;2023-01-29T16:32:06;16.35;;;7.85;;
2452;SDS011;63678;47.994;7.854;2023-01-29T16:34:41;15.38;;;8.50;;
2452;SDS011;63678;47.994;7.854;2023-01-29T16:37:23;15.15;;;8.25;;
2452;SDS011;63678;47.994;7.854;2023-01-29T16:39:59;22.70;;;10.63;;
2452;SDS011;63678;47.994;7.854;2023-01-29T16:42:47;16.10;;;8.50;;
2452;SDS011;63678;47.994;7.854;2023-01-29T16:45:24;18.45;;;9.00;;
2452;SDS011;63678;47.994;7.854;2023-01-29T16:47:59;19.40;;;10.15;;
2452;SDS011;63678;47.994;7.854;2023-01-29T16:51:02;16.58;;;8.50;;
2452;SDS011;63678;47.994;7.854;2023-01-29T16:53:36;21.60;;;10.52;;
2452;SDS011;63678;47.994;7.854;2023-01-29T16:56:08;17.97;;;9.50;;
2452;SDS011;63678;47.994;7.854;2023-01-29T16:58:41;17.23;;;9.38;;
2452;SDS011;63678;47.994;7.854;2023-01-29T17:01:20;18.70;;;9.75;;
2452;SDS011;63678;47.994;7.854;2023-01-29T17:03:57;18.65;;;10.02;;
2452;SDS011;63678;47.994;7.854;2023-01-29T17:06:39;19.40;;;9.45;;
2452;SDS011;63678;47.994;7.854;2023-01-29T17:09:23;17.40;;;8.70;;
2452;SDS011;63678;47.994;7.854;2023-01-29T17:12:05;17.77;;;9.82;;
2452;SDS011;63678;47.994;7.854;2023-01-29T17:14:39;19.67;;;9.02;;
2452;SDS011;63678;47.994;7.854;2023-01-29T17:17:32;25.65;;;10.43;;
2452;SDS011;63678;47.994;7.854;2023-01-29T17:20:14;19.67;;;10.32;;
2452;SDS011;63678;47.994;7.854;2023-01-29T17:22:47;28.13;;;11.53;;
2452;SDS011;63678;47.994;7.854;2023-01-29T17:25:19;18.95;;;10.85;;
2452;SDS011;63678;47.994;7.854;2023-01-29T17:27:52;22.13;;;11.10;;
2452;SDS011;63678;47.994;7.854;2023-01-29T17:30:25;19.40;;;10.10;;
2452;SDS011;63678;47.994;7.854;2023-01-29T17:33:12;21.77;;;10.40;;
2452;SDS011;63678;47.994;7.854;2023-01-29T17:35:48;21.87;;;10.83;;
2452;SDS011;63678;47.994;7.854;2023-01-29T17:38:21;24.05;;;10.15;;
2452;SDS011;63678;47.994;7.854;2023-01-29T17:43:58;25.92;;;10.55;;
2452;SDS011;63678;47.994;7.854;2023-01-29T17:46:31;21.38;;;10.52;;
2452;SDS011;63678;47.994;7.854;2023-01-29T17:49:04;24.00;;;10.63;;
2452;SDS011;63678;47.994;7.854;2023-01-29T17:51:51;22.35;;;11.45;;
2452;SDS011;63678;47.994;7.854;2023-01-29T17:54:24;22.30;;;12.10;;
2452;SDS011;63678;47.994;7.854;2023-01-29T17:56:56;23.67;;;12.18;;
2452;SDS011;63678;47.994;7.854;2023-01-29T17:59:32;23.55;;;12.85;;
2452;SDS011;63678;47.994;7.854;2023-01-29T18:02:07;27.10;;;13.23;;
2452;SDS011;63678;47.994;7.854;2023-01-29T18:05:00;29.75;;;14.75;;
2452;SDS011;63678;47.994;7.854;2023-01-29T18:07:32;30.83;;;15.43;;
2452;SDS011;63678;47.994;7.854;2023-01-29T18:10:05;29.05;;;14.45;;